createdAt,value
2023-04-28T00:00:02.222Z,5.27
2023-04-28T00:02:49.436Z,5.25
2023-04-28T00:05:33.473Z,5.21
2023-04-28T00:08:17.473Z,5.16
2023-04-28T00:11:01.078Z,5.12
2023-04-28T00:13:45.223Z,5.06
2023-04-28T00:16:20.947Z,5.02
2023-04-28T00:19:04.895Z,4.98
2023-04-28T00:21:48.899Z,4.96
2023-04-28T00:24:33.372Z,4.92
2023-04-28T00:27:17.069Z,4.90
2023-04-28T00:29:59.682Z,4.87
2023-04-28T00:32:43.330Z,4.83
2023-04-28T00:35:27.276Z,4.79
2023-04-28T00:38:02.938Z,4.75
2023-04-28T00:40:34.338Z,4.71
2023-04-28T00:43:06.977Z,4.66
2023-04-28T00:45:51.450Z,4.62
2023-04-28T00:48:18.486Z,4.60
2023-04-28T00:51:03.436Z,4.59
2023-04-28T00:53:47.886Z,4.55
2023-04-28T00:56:31.940Z,4.52
2023-04-28T00:59:08.232Z,4.50
2023-04-28T01:01:52.356Z,4.49
2023-04-28T01:04:36.795Z,4.50
2023-04-28T01:07:21.042Z,4.49
2023-04-28T01:10:06.417Z,4.47
2023-04-28T01:12:50.061Z,4.44
2023-04-28T01:15:33.730Z,4.40
2023-04-28T01:18:11.679Z,4.40
2023-04-28T01:20:55.978Z,4.38
2023-04-28T01:23:23.155Z,4.37
2023-04-28T01:26:06.855Z,4.35
2023-04-28T01:28:50.844Z,4.33
2023-04-28T01:31:34.920Z,4.29
2023-04-28T01:34:09.172Z,4.27
2023-04-28T01:36:36.741Z,4.23
2023-04-28T01:39:01.207Z,4.20
2023-04-28T01:41:45.465Z,4.17
2023-04-28T01:44:24.155Z,4.16
2023-04-28T01:47:00.951Z,4.14
2023-04-28T01:49:44.713Z,4.11
2023-04-28T01:52:22.093Z,4.07
2023-04-28T01:54:57.277Z,4.03
2023-04-28T01:57:41.385Z,4.00
2023-04-28T02:00:26.550Z,3.98
2023-04-28T02:03:09.581Z,3.98
2023-04-28T02:05:35.233Z,3.97
2023-04-28T02:08:19.439Z,3.96
2023-04-28T02:11:03.683Z,3.94
2023-04-28T02:13:27.588Z,3.90
2023-04-28T02:15:51.037Z,3.87
2023-04-28T02:18:16.539Z,3.85
2023-04-28T02:20:40.411Z,3.82
2023-04-28T02:23:06.839Z,3.79
2023-04-28T02:25:30.371Z,3.78
2023-04-28T02:27:53.979Z,3.77
2023-04-28T02:30:37.687Z,3.76
2023-04-28T02:33:13.365Z,3.75
2023-04-28T02:36:00.220Z,3.73
2023-04-28T02:38:44.525Z,3.71
2023-04-28T02:41:26.936Z,3.69
2023-04-28T02:43:54.496Z,3.67
2023-04-28T02:46:39.498Z,3.64
2023-04-28T02:49:07.094Z,3.64
2023-04-28T02:51:50.860Z,3.66
2023-04-28T02:54:33.519Z,3.65
2023-04-28T02:57:04.010Z,3.66
2023-04-28T02:59:30.748Z,3.65
2023-04-28T03:01:54.178Z,3.64
2023-04-28T03:04:20.551Z,3.65
2023-04-28T03:06:53.842Z,3.66
2023-04-28T03:09:17.407Z,3.67
2023-04-28T03:11:49.874Z,3.67
2023-04-28T03:14:24.401Z,3.67
2023-04-28T03:16:51.488Z,3.68
2023-04-28T03:19:15.029Z,3.67
2023-04-28T03:21:38.587Z,3.65
2023-04-28T03:24:04.808Z,3.67
2023-04-28T03:26:49.522Z,3.69
2023-04-28T03:29:33.065Z,3.72
2023-04-28T03:31:59.700Z,3.76
2023-04-28T03:34:43.709Z,3.77
2023-04-28T03:37:12.176Z,3.78
2023-04-28T03:39:47.014Z,3.80
2023-04-28T03:42:31.045Z,3.83
2023-04-28T03:45:20.721Z,3.87
2023-04-28T03:47:44.736Z,3.91
2023-04-28T03:50:13.397Z,3.94
2023-04-28T03:52:46.628Z,4.00
2023-04-28T03:55:15.749Z,4.06
2023-04-28T03:57:42.622Z,4.11
2023-04-28T04:00:09.491Z,4.15
2023-04-28T04:02:38.992Z,4.22
2023-04-28T04:05:02.817Z,4.28
2023-04-28T04:07:27.403Z,4.36
2023-04-28T04:09:51.609Z,4.42
2023-04-28T04:12:15.492Z,4.49
2023-04-28T04:14:59.562Z,4.51
2023-04-28T04:17:43.762Z,4.54
2023-04-28T04:20:27.289Z,4.58
2023-04-28T04:23:03.091Z,4.62
2023-04-28T04:25:47.129Z,4.69
2023-04-28T04:28:22.051Z,4.80
2023-04-28T04:30:50.659Z,4.93
2023-04-28T04:33:34.758Z,5.07
2023-04-28T04:36:18.720Z,5.19
2023-04-28T04:39:02.767Z,5.39
2023-04-28T04:41:46.523Z,5.75
2023-04-28T04:44:30.510Z,6.13
2023-04-28T04:47:14.142Z,6.86
2023-04-28T04:49:57.894Z,8.82
2023-04-28T04:52:25.344Z,10.87
2023-04-28T04:54:52.319Z,12.88
2023-04-28T04:57:15.978Z,14.61
2023-04-28T05:00:03.886Z,16.27
2023-04-28T05:02:27.686Z,17.61
2023-04-28T05:04:52.127Z,18.90
2023-04-28T05:07:16.294Z,20.12
2023-04-28T05:09:39.960Z,21.13
2023-04-28T05:12:03.763Z,22.05
2023-04-28T05:14:27.203Z,22.90
2023-04-28T05:16:51.027Z,23.67
2023-04-28T05:19:23.117Z,24.40
2023-04-28T05:21:47.761Z,25.26
2023-04-28T05:24:11.268Z,26.00
2023-04-28T05:26:35.400Z,26.68
2023-04-28T05:29:02.477Z,27.26
2023-04-28T05:31:26.376Z,27.79
2023-04-28T05:33:51.226Z,28.35
2023-04-28T05:36:16.582Z,28.85
2023-04-28T05:38:40.367Z,29.35
2023-04-28T05:41:03.891Z,30.00
2023-04-28T05:43:27.967Z,30.61
2023-04-28T05:45:51.684Z,31.16
2023-04-28T05:48:15.658Z,31.50
2023-04-28T05:50:39.272Z,31.68
2023-04-28T05:53:04.307Z,32.01
2023-04-28T05:55:28.258Z,32.37
2023-04-28T05:57:53.747Z,32.83
2023-04-28T06:00:18.741Z,33.01
2023-04-28T06:02:42.412Z,33.30
2023-04-28T06:05:07.419Z,33.36
2023-04-28T06:07:31.135Z,33.66
2023-04-28T06:09:54.506Z,34.13
2023-04-28T06:12:18.839Z,34.61
2023-04-28T06:14:42.450Z,34.72
2023-04-28T06:17:06.138Z,34.39
2023-04-28T06:19:29.784Z,34.44
2023-04-28T06:21:53.451Z,34.66
2023-04-28T06:24:17.290Z,34.72
2023-04-28T06:26:42.761Z,34.74
2023-04-28T06:29:06.398Z,35.03
2023-04-28T06:31:29.914Z,35.35
2023-04-28T06:33:53.534Z,35.59
2023-04-28T06:36:19.666Z,35.98
2023-04-28T06:38:43.432Z,36.03
2023-04-28T06:41:06.883Z,36.03
2023-04-28T06:43:30.975Z,36.11
2023-04-28T06:46:18.362Z,36.22
2023-04-28T06:48:42.407Z,36.40
2023-04-28T06:51:05.972Z,36.38
2023-04-28T06:53:31.517Z,36.58
2023-04-28T06:55:56.234Z,36.99
2023-04-28T06:58:20.609Z,37.26
2023-04-28T07:00:44.756Z,37.15
2023-04-28T07:03:08.913Z,36.69
2023-04-28T07:05:33.898Z,36.37
2023-04-28T07:07:57.257Z,36.50
2023-04-28T07:10:20.829Z,36.49
2023-04-28T07:12:44.217Z,36.67
2023-04-28T07:15:10.358Z,36.53
2023-04-28T07:17:34.206Z,36.43
2023-04-28T07:19:57.741Z,36.38
2023-04-28T07:22:21.252Z,36.43
2023-04-28T07:24:44.911Z,36.40
2023-04-28T07:27:08.313Z,36.56
2023-04-28T07:29:33.658Z,36.62
2023-04-28T07:31:57.279Z,36.58
2023-04-28T07:34:20.877Z,36.29
2023-04-28T07:36:44.164Z,36.27
2023-04-28T07:39:07.921Z,36.42
2023-04-28T07:41:35.816Z,36.28
2023-04-28T07:43:59.127Z,35.97
2023-04-28T07:46:23.127Z,35.90
2023-04-28T07:48:46.683Z,35.81
2023-04-28T07:51:10.730Z,36.03
2023-04-28T07:53:34.569Z,36.33
2023-04-28T07:55:57.937Z,36.26
2023-04-28T07:58:21.661Z,36.08
2023-04-28T08:00:45.778Z,35.92
2023-04-28T08:03:09.391Z,35.83
2023-04-28T08:05:33.264Z,35.87
2023-04-28T08:07:56.950Z,35.93
2023-04-28T08:10:21.039Z,35.94
2023-04-28T08:12:45.254Z,36.05
2023-04-28T08:15:10.081Z,35.98
2023-04-28T08:17:33.557Z,36.06
2023-04-28T08:19:56.944Z,36.05
2023-04-28T08:22:20.600Z,36.02
2023-04-28T08:24:43.880Z,36.05
2023-04-28T08:27:07.953Z,35.90
2023-04-28T08:29:31.928Z,35.83
2023-04-28T08:31:55.285Z,35.93
2023-04-28T08:34:19.524Z,35.81
2023-04-28T08:36:43.222Z,35.72
2023-04-28T08:39:07.957Z,35.34
2023-04-28T08:41:33.294Z,35.05
2023-04-28T08:43:58.046Z,34.31
2023-04-28T08:46:23.580Z,33.61
2023-04-28T08:48:48.868Z,32.99
2023-04-28T08:51:16.008Z,32.77
2023-04-28T08:54:06.218Z,32.54
2023-04-28T08:56:26.832Z,31.18
2023-04-28T08:58:52.181Z,29.60
2023-04-28T09:01:15.530Z,28.25
2023-04-28T09:03:39.789Z,27.19
2023-04-28T09:06:03.349Z,26.16
2023-04-28T09:08:26.886Z,25.71
2023-04-28T09:11:07.386Z,25.26
2023-04-28T09:13:32.732Z,24.96
2023-04-28T09:16:01.105Z,25.34
2023-04-28T09:18:24.832Z,25.50
2023-04-28T09:20:48.410Z,24.82
2023-04-28T09:23:17.077Z,23.95
2023-04-28T09:25:40.592Z,23.78
2023-04-28T09:28:21.371Z,24.12
2023-04-28T09:30:44.930Z,24.64
2023-04-28T09:33:10.717Z,25.14
2023-04-28T09:35:42.216Z,25.86
2023-04-28T09:38:05.674Z,26.43
2023-04-28T09:40:29.076Z,26.75
2023-04-28T09:42:52.698Z,27.02
2023-04-28T09:45:16.878Z,27.33
2023-04-28T09:47:42.489Z,27.64
2023-04-28T09:50:10.980Z,27.82
2023-04-28T09:52:35.364Z,27.14
2023-04-28T09:55:01.103Z,27.13
2023-04-28T09:57:24.350Z,27.60
2023-04-28T09:59:50.127Z,27.94
2023-04-28T10:02:41.043Z,27.63
2023-04-28T10:04:58.964Z,27.96
2023-04-28T10:07:22.802Z,28.17
2023-04-28T10:09:49.485Z,27.98
2023-04-28T10:12:13.962Z,27.90
2023-04-28T10:14:38.220Z,27.84
2023-04-28T10:17:03.187Z,27.73
2023-04-28T10:19:26.745Z,27.53
2023-04-28T10:22:05.718Z,27.41
2023-04-28T10:24:30.506Z,26.59
2023-04-28T10:27:10.581Z,25.63
2023-04-28T10:29:35.471Z,24.85
2023-04-28T10:32:25.588Z,24.42
2023-04-28T10:34:49.198Z,24.27
2023-04-28T10:37:16.784Z,24.07
2023-04-28T10:39:40.576Z,24.12
2023-04-28T10:42:04.197Z,24.19
2023-04-28T10:44:43.850Z,24.00
2023-04-28T10:47:08.922Z,23.45
2023-04-28T10:50:06.229Z,23.01
2023-04-28T10:52:50.926Z,22.84
2023-04-28T10:55:36.320Z,22.37
2023-04-28T10:58:37.166Z,21.87
2023-04-28T11:01:28.970Z,21.37
2023-04-28T11:03:59.468Z,20.78
2023-04-28T11:06:25.561Z,20.35
2023-04-28T11:08:49.088Z,19.96
2023-04-28T11:11:20.959Z,19.77
2023-04-28T11:13:46.427Z,19.58
2023-04-28T11:16:10.042Z,19.48
2023-04-28T11:18:48.043Z,19.28
2023-04-28T11:21:13.979Z,18.73
2023-04-28T11:23:39.282Z,18.16
2023-04-28T11:26:03.122Z,17.58
2023-04-28T11:28:26.695Z,17.34
2023-04-28T11:30:50.915Z,17.00
2023-04-28T11:33:16.147Z,16.67
2023-04-28T11:35:43.953Z,16.43
2023-04-28T11:38:07.527Z,16.25
2023-04-28T11:40:31.854Z,16.04
2023-04-28T11:43:00.075Z,15.92
2023-04-28T11:45:24.452Z,15.94
2023-04-28T11:47:47.904Z,15.95
2023-04-28T11:50:13.588Z,16.05
2023-04-28T11:52:46.767Z,16.15
2023-04-28T11:55:17.225Z,16.34
2023-04-28T11:57:40.713Z,16.67
2023-04-28T12:00:18.492Z,17.11
2023-04-28T12:02:42.446Z,17.44
2023-04-28T12:05:09.097Z,17.73
2023-04-28T12:07:42.044Z,18.05
2023-04-28T12:10:15.222Z,18.38
2023-04-28T12:12:50.030Z,18.60
2023-04-28T12:15:16.741Z,18.58
2023-04-28T12:17:42.866Z,18.60
2023-04-28T12:20:10.791Z,18.47
2023-04-28T12:22:45.063Z,18.53
2023-04-28T12:25:11.870Z,18.77
2023-04-28T12:27:38.769Z,18.78
2023-04-28T12:30:02.939Z,18.81
2023-04-28T12:32:39.275Z,18.86
2023-04-28T12:35:04.666Z,18.80
2023-04-28T12:37:28.212Z,18.70
2023-04-28T12:39:51.781Z,18.77
2023-04-28T12:42:15.133Z,18.73
2023-04-28T12:44:40.075Z,18.58
2023-04-28T12:47:13.974Z,18.49
2023-04-28T12:49:38.004Z,18.57
2023-04-28T12:52:05.137Z,18.58
2023-04-28T12:54:29.046Z,18.48
2023-04-28T12:56:54.016Z,18.51
2023-04-28T12:59:17.442Z,18.62
2023-04-28T13:01:40.783Z,18.65
2023-04-28T13:04:05.265Z,18.53
2023-04-28T13:06:28.853Z,18.39
2023-04-28T13:08:52.738Z,18.42
2023-04-28T13:11:22.615Z,18.38
2023-04-28T13:13:46.756Z,18.33
2023-04-28T13:16:10.123Z,18.38
2023-04-28T13:18:33.935Z,18.43
2023-04-28T13:20:57.541Z,18.47
2023-04-28T13:23:21.672Z,18.57
2023-04-28T13:25:45.147Z,18.62
2023-04-28T13:28:08.614Z,18.54
2023-04-28T13:30:32.080Z,18.19
2023-04-28T13:32:57.463Z,17.82
2023-04-28T13:35:21.114Z,17.68
2023-04-28T13:37:45.479Z,17.37
2023-04-28T13:40:11.720Z,16.98
2023-04-28T13:42:35.106Z,16.85
2023-04-28T13:44:58.554Z,16.86
2023-04-28T13:47:22.022Z,16.85
2023-04-28T13:49:45.383Z,16.81
2023-04-28T13:52:08.969Z,16.79
2023-04-28T13:54:32.364Z,16.78
2023-04-28T13:56:56.676Z,16.84
2023-04-28T13:59:20.182Z,16.87
2023-04-28T14:01:43.619Z,16.69
2023-04-28T14:04:07.505Z,16.35
2023-04-28T14:06:33.049Z,15.87
2023-04-28T14:08:59.039Z,15.49
2023-04-28T14:11:22.811Z,15.26
2023-04-28T14:13:46.219Z,15.16
2023-04-28T14:16:09.879Z,15.07
2023-04-28T14:18:33.860Z,15.01
2023-04-28T14:21:18.079Z,14.89
2023-04-28T14:23:41.573Z,14.75
2023-04-28T14:26:06.287Z,14.68
2023-04-28T14:28:30.459Z,14.70
2023-04-28T14:30:54.903Z,14.78
2023-04-28T14:33:18.387Z,14.89
2023-04-28T14:35:45.224Z,15.00
2023-04-28T14:38:08.683Z,15.06
2023-04-28T14:40:32.696Z,15.08
2023-04-28T14:42:56.555Z,15.00
2023-04-28T14:45:20.453Z,14.86
2023-04-28T14:47:44.477Z,14.73
2023-04-28T14:50:13.719Z,14.64
2023-04-28T14:52:40.620Z,14.65
2023-04-28T14:55:05.129Z,14.65
2023-04-28T14:57:39.081Z,14.64
2023-04-28T15:00:03.356Z,14.63
2023-04-28T15:02:28.693Z,14.69
2023-04-28T15:05:02.762Z,14.75
2023-04-28T15:07:31.000Z,14.78
2023-04-28T15:09:54.624Z,14.80
2023-04-28T15:12:18.543Z,14.84
2023-04-28T15:14:42.227Z,14.84
2023-04-28T15:17:14.801Z,14.77
2023-04-28T15:19:38.624Z,14.72
2023-04-28T15:22:02.837Z,14.63
2023-04-28T15:24:26.340Z,14.58
2023-04-28T15:26:49.777Z,14.58
2023-04-28T15:29:13.280Z,14.59
2023-04-28T15:31:36.908Z,14.62
2023-04-28T15:34:01.254Z,14.65
2023-04-28T15:36:24.971Z,14.70
2023-04-28T15:38:48.453Z,14.75
2023-04-28T15:41:12.188Z,14.74
2023-04-28T15:43:36.791Z,14.72
2023-04-28T15:46:01.307Z,14.69
2023-04-28T15:48:25.118Z,14.63
2023-04-28T15:50:48.806Z,14.54
2023-04-28T15:53:16.776Z,14.45
2023-04-28T15:55:40.352Z,14.33
2023-04-28T15:58:03.943Z,14.21
2023-04-28T16:00:37.664Z,14.09
2023-04-28T16:03:01.819Z,13.99
2023-04-28T16:05:25.767Z,13.92
2023-04-28T16:07:49.417Z,13.86
2023-04-28T16:10:15.591Z,13.76
2023-04-28T16:12:42.124Z,13.65
2023-04-28T16:15:26.369Z,13.52
2023-04-28T16:17:51.310Z,13.43
2023-04-28T16:20:14.885Z,13.35
2023-04-28T16:22:40.862Z,13.27
2023-04-28T16:25:08.820Z,13.24
2023-04-28T16:27:32.952Z,13.20
2023-04-28T16:29:56.618Z,13.17
2023-04-28T16:32:20.069Z,13.15
2023-04-28T16:34:43.588Z,13.12
2023-04-28T16:37:18.517Z,13.10
2023-04-28T16:39:42.192Z,13.09
2023-04-28T16:42:05.649Z,13.07
2023-04-28T16:44:32.904Z,13.05
2023-04-28T16:46:57.425Z,13.00
2023-04-28T16:49:21.164Z,12.98
2023-04-28T16:51:57.735Z,12.94
2023-04-28T16:54:21.217Z,12.92
2023-04-28T16:56:48.240Z,12.92
2023-04-28T16:59:15.427Z,12.91
2023-04-28T17:01:38.845Z,12.90
2023-04-28T17:04:06.043Z,12.89
2023-04-28T17:06:29.754Z,12.89
2023-04-28T17:08:53.250Z,12.88
2023-04-28T17:11:19.380Z,12.87
2023-04-28T17:13:47.500Z,12.85
2023-04-28T17:16:14.044Z,12.80
2023-04-28T17:18:40.780Z,12.78
2023-04-28T17:21:26.551Z,12.75
2023-04-28T17:23:52.685Z,12.73
2023-04-28T17:26:36.950Z,12.66
2023-04-28T17:29:04.182Z,12.63
2023-04-28T17:31:40.673Z,12.59
2023-04-28T17:34:24.531Z,12.56
2023-04-28T17:37:01.357Z,12.49
2023-04-28T17:39:38.136Z,12.42
2023-04-28T17:42:03.637Z,12.37
2023-04-28T17:44:47.312Z,12.30
2023-04-28T17:47:11.244Z,12.25
2023-04-28T17:49:45.252Z,12.21
2023-04-28T17:52:18.635Z,12.14
2023-04-28T17:55:02.685Z,12.07
2023-04-28T17:57:47.335Z,12.00
2023-04-28T18:00:31.383Z,11.94
2023-04-28T18:02:55.455Z,11.88
2023-04-28T18:05:23.580Z,11.84
2023-04-28T18:07:47.200Z,11.78
2023-04-28T18:10:11.417Z,11.71
2023-04-28T18:12:55.790Z,11.65
2023-04-28T18:15:20.248Z,11.60
2023-04-28T18:17:46.964Z,11.55
2023-04-28T18:20:14.029Z,11.50
2023-04-28T18:22:40.918Z,11.45
2023-04-28T18:25:05.293Z,11.42
2023-04-28T18:27:37.343Z,11.38
2023-04-28T18:30:10.353Z,11.36
2023-04-28T18:32:54.227Z,11.33
2023-04-28T18:35:27.227Z,11.31
2023-04-28T18:38:00.548Z,11.28
2023-04-28T18:40:37.206Z,11.25
2023-04-28T18:43:01.900Z,11.22
2023-04-28T18:45:40.121Z,11.17
2023-04-28T18:48:23.116Z,11.13
2023-04-28T18:50:50.575Z,11.08
2023-04-28T18:53:35.132Z,11.05
2023-04-28T18:56:20.612Z,11.01
2023-04-28T18:59:05.343Z,10.96
2023-04-28T19:01:37.872Z,10.94
2023-04-28T19:04:04.776Z,10.89
2023-04-28T19:06:31.125Z,10.86
2023-04-28T19:08:55.228Z,10.82
2023-04-28T19:11:27.600Z,10.80
2023-04-28T19:14:00.719Z,10.78
2023-04-28T19:16:44.440Z,10.75
2023-04-28T19:19:15.450Z,10.74
2023-04-28T19:21:42.085Z,10.72
2023-04-28T19:24:28.601Z,10.67
2023-04-28T19:26:57.501Z,10.65
2023-04-28T19:29:24.572Z,10.63
2023-04-28T19:32:09.272Z,10.59
2023-04-28T19:34:43.723Z,10.55
2023-04-28T19:37:22.142Z,10.53
2023-04-28T19:39:48.560Z,10.49
2023-04-28T19:42:15.018Z,10.46
2023-04-28T19:44:47.729Z,10.43
2023-04-28T19:47:24.145Z,10.39
2023-04-28T19:49:46.959Z,10.36
2023-04-28T19:52:10.450Z,10.33
2023-04-28T19:54:33.975Z,10.29
2023-04-28T19:57:01.153Z,10.26
2023-04-28T19:59:45.429Z,10.22
2023-04-28T20:02:18.329Z,10.20
2023-04-28T20:05:03.486Z,10.17
2023-04-28T20:07:30.376Z,10.14
2023-04-28T20:09:55.487Z,10.10
2023-04-28T20:12:18.907Z,10.07
2023-04-28T20:14:51.475Z,10.03
2023-04-28T20:17:18.145Z,9.99
2023-04-28T20:19:51.198Z,9.95
2023-04-28T20:22:35.650Z,9.91
2023-04-28T20:25:13.975Z,9.88
2023-04-28T20:27:57.719Z,9.84
2023-04-28T20:30:34.425Z,9.80
2023-04-28T20:33:18.110Z,9.74
2023-04-28T20:35:44.740Z,9.70
2023-04-28T20:38:29.309Z,9.66
2023-04-28T20:40:59.147Z,9.61
2023-04-28T20:43:32.904Z,9.57
2023-04-28T20:45:58.826Z,9.53
2023-04-28T20:48:22.432Z,9.49
2023-04-28T20:50:52.056Z,9.44
2023-04-28T20:53:26.076Z,9.40
2023-04-28T20:55:50.005Z,9.37
2023-04-28T20:58:14.296Z,9.35
2023-04-28T21:00:40.402Z,9.32
2023-04-28T21:03:17.819Z,9.31
2023-04-28T21:05:54.072Z,9.27
2023-04-28T21:08:17.747Z,9.24
2023-04-28T21:11:02.268Z,9.20
2023-04-28T21:13:46.260Z,9.18
2023-04-28T21:16:30.346Z,9.15
2023-04-28T21:19:14.383Z,9.12
2023-04-28T21:21:58.526Z,9.09
2023-04-28T21:24:42.662Z,9.07
2023-04-28T21:27:26.802Z,9.04
2023-04-28T21:30:12.578Z,9.01
2023-04-28T21:32:56.899Z,8.99
2023-04-28T21:35:40.683Z,8.97
2023-04-28T21:38:07.472Z,8.95
2023-04-28T21:40:51.922Z,8.93
2023-04-28T21:43:36.675Z,8.91
2023-04-28T21:46:09.402Z,8.90
2023-04-28T21:48:42.187Z,8.89
2023-04-28T21:51:05.978Z,8.87
2023-04-28T21:53:50.136Z,8.85
2023-04-28T21:56:25.154Z,8.84
2023-04-28T21:59:00.392Z,8.82
2023-04-28T22:01:24.167Z,8.81
2023-04-28T22:04:09.022Z,8.80
2023-04-28T22:06:33.165Z,8.78
2023-04-28T22:09:08.631Z,8.78
2023-04-28T22:11:52.701Z,8.76
2023-04-28T22:14:40.950Z,8.74
2023-04-28T22:17:05.150Z,8.73
2023-04-28T22:19:49.285Z,8.71
2023-04-28T22:22:20.376Z,8.69
2023-04-28T22:24:51.676Z,8.67
2023-04-28T22:27:26.605Z,8.63
2023-04-28T22:30:12.818Z,8.60
2023-04-28T22:32:36.596Z,8.56
2023-04-28T22:35:04.058Z,8.52
2023-04-28T22:37:48.009Z,8.47
2023-04-28T22:40:12.022Z,8.43
2023-04-28T22:42:36.943Z,8.40
2023-04-28T22:45:21.132Z,8.37
2023-04-28T22:48:06.566Z,8.33
2023-04-28T22:50:31.157Z,8.28
2023-04-28T22:53:04.467Z,8.23
2023-04-28T22:55:49.206Z,8.18
2023-04-28T22:58:33.359Z,8.14
2023-04-28T23:01:17.264Z,8.06
2023-04-28T23:03:52.201Z,8.01
2023-04-28T23:06:15.901Z,7.96
2023-04-28T23:08:43.009Z,7.92
2023-04-28T23:11:15.157Z,7.87
2023-04-28T23:13:59.195Z,7.82
2023-04-28T23:16:31.732Z,7.76
2023-04-28T23:19:16.565Z,7.73
2023-04-28T23:21:53.764Z,7.68
2023-04-28T23:24:39.605Z,7.62
2023-04-28T23:27:11.961Z,7.58
2023-04-28T23:29:56.650Z,7.54
2023-04-28T23:32:41.540Z,7.49
2023-04-28T23:35:09.735Z,7.44
2023-04-28T23:37:53.438Z,7.41
2023-04-28T23:40:17.609Z,7.37
2023-04-28T23:43:01.724Z,7.34
2023-04-28T23:45:28.402Z,7.29
2023-04-28T23:48:12.609Z,7.25
2023-04-28T23:50:37.784Z,7.20
2023-04-28T23:53:20.381Z,7.18
2023-04-28T23:55:56.524Z,7.14
2023-04-28T23:58:40.338Z,7.10
